Time;durP1;ratioP1;P1;durP2;ratioP2;P2;SDS_P1;SDS_P2;PMS_P1;PMS_P2;Temp;Humidity;BMP_temperature;BMP_pressure;BME280_temperature;BME280_humidity;BME280_pressure;Samples;Min_cycle;Max_cycle;Signal;HPM_P1;HPM_P2
2022/05/28 00:01:20;;;;;;;3.13;0.85;;;;;;;20.93;53.98;100156.41;5026682;28;20125;-63
2022/05/28 00:03:46;;;;;;;1.27;0.93;;;;;;;20.91;54.03;100147.59;5015308;28;20096;-63
2022/05/28 00:06:17;;;;;;;3.10;0.93;;;;;;;20.85;54.08;100162.03;5006795;28;20021;-63
2022/05/28 00:08:43;;;;;;;5.53;0.82;;;;;;;20.79;54.51;100157.41;5005454;28;20105;-63
2022/05/28 00:11:18;;;;;;;1.98;0.50;;;;;;;20.78;55.90;100156.56;5006308;28;20397;-64
2022/05/28 00:13:44;;;;;;;2.45;0.68;;;;;;;20.69;57.46;100151.47;5005934;28;20523;-64
2022/05/28 00:16:10;;;;;;;2.25;0.88;;;;;;;20.72;59.15;100161.97;5007419;28;20057;-64
2022/05/28 00:18:37;;;;;;;3.67;0.70;;;;;;;20.70;59.67;100158.63;5007858;28;20057;-65
2022/05/28 00:21:03;;;;;;;5.32;1.23;;;;;;;20.63;60.09;100157.78;5006166;28;20033;-65
2022/05/28 00:23:28;;;;;;;3.80;0.75;;;;;;;20.61;59.78;100162.56;5005974;28;20413;-65
2022/05/28 00:25:54;;;;;;;1.13;0.70;;;;;;;20.58;59.58;100165.69;5006517;28;20053;-65
2022/05/28 00:28:21;;;;;;;0.77;0.70;;;;;;;20.50;60.91;100163.16;5006466;28;20111;-65
2022/05/28 00:30:47;;;;;;;1.05;0.90;;;;;;;20.33;61.68;100146.28;5006521;28;20026;-65
2022/05/28 00:33:12;;;;;;;0.85;0.68;;;;;;;20.37;60.99;100165.81;5006297;28;20057;-64
2022/05/28 00:35:38;;;;;;;0.90;0.80;;;;;;;20.32;61.58;100165.56;5022061;28;20476;-65
2022/05/28 00:38:03;;;;;;;0.95;0.70;;;;;;;20.22;62.36;100176.84;5006020;28;20464;-64
2022/05/28 00:40:28;;;;;;;1.55;0.70;;;;;;;20.19;62.58;100180.78;5006080;28;20037;-65
2022/05/28 00:43:03;;;;;;;3.00;0.85;;;;;;;20.10;62.59;100181.97;5006460;28;20057;-66
2022/05/28 00:45:31;;;;;;;0.95;0.70;;;;;;;19.95;62.86;100173.03;5004231;28;20026;-65
2022/05/28 00:48:00;;;;;;;1.05;0.70;;;;;;;19.98;62.84;100183.53;5006266;28;20034;-66
2022/05/28 00:50:26;;;;;;;5.60;0.90;;;;;;;19.85;64.28;100194.31;5005136;28;20041;-66
2022/05/28 00:52:53;;;;;;;2.05;1.08;;;;;;;19.84;64.53;100187.22;5006761;28;20029;-66
2022/05/28 00:55:19;;;;;;;3.17;0.95;;;;;;;19.76;64.08;100186.47;5008554;28;20034;-65
2022/05/28 00:57:45;;;;;;;3.30;0.63;;;;;;;19.62;64.03;100165.66;5004781;28;20490;-66
2022/05/28 01:00:14;;;;;;;2.53;0.75;;;;;;;19.62;64.83;100184.69;5006975;28;20124;-67
2022/05/28 01:02:53;;;;;;;2.25;0.80;;;;;;;19.52;67.51;100181.47;5005443;28;20085;-65
2022/05/28 01:05:43;;;;;;;2.47;0.80;;;;;;;19.42;68.27;100184.53;5009530;28;20041;-66
2022/05/28 01:08:31;;;;;;;4.03;0.70;;;;;;;19.15;71.30;100162.66;5008633;28;20025;-65
2022/05/28 01:11:02;;;;;;;1.75;0.68;;;;;;;19.29;69.86;100188.97;5013000;28;20085;-65
2022/05/28 01:13:32;;;;;;;1.60;0.88;;;;;;;19.07;70.01;100166.34;5027972;28;20469;-66
2022/05/28 01:16:26;;;;;;;1.45;0.80;;;;;;;18.99;72.21;100192.81;5008242;28;20029;-65
2022/05/28 01:19:02;;;;;;;3.60;0.93;;;;;;;18.94;71.89;100190.66;5015520;28;20037;-66
2022/05/28 01:21:58;;;;;;;1.15;0.75;;;;;;;18.78;74.30;100192.75;5008679;28;20077;-65
2022/05/28 01:24:46;;;;;;;2.15;0.90;;;;;;;18.71;73.40;100195.41;5008953;28;20073;-66
2022/05/28 01:27:18;;;;;;;0.68;0.57;;;;;;;18.54;74.08;100190.34;5008990;28;20049;-65
2022/05/28 01:29:50;;;;;;;3.53;0.95;;;;;;;18.41;75.14;100180.13;5025771;28;20091;-66
2022/05/28 01:32:18;;;;;;;1.13;0.93;;;;;;;18.31;77.81;100184.97;4996115;28;20397;-65
2022/05/28 01:34:47;;;;;;;3.72;0.80;;;;;;;18.27;76.48;100193.69;5006043;28;20421;-65
2022/05/28 01:37:14;;;;;;;1.83;1.10;;;;;;;18.19;77.23;100189.22;5011433;28;20536;-65
2022/05/28 01:39:46;;;;;;;2.78;1.20;;;;;;;18.08;77.49;100176.94;5007764;28;20052;-65
2022/05/28 01:42:13;;;;;;;2.08;1.00;;;;;;;18.07;77.02;100190.69;5014805;28;20033;-65
2022/05/28 01:44:41;;;;;;;2.20;1.00;;;;;;;17.98;78.03;100183.66;5014164;28;20037;-65
2022/05/28 01:47:06;;;;;;;3.53;1.20;;;;;;;17.88;80.10;100177.66;5006781;28;20033;-65
2022/05/28 01:49:34;;;;;;;3.00;1.00;;;;;;;17.79;83.86;100163.31;5012323;28;20033;-66
2022/05/28 01:52:02;;;;;;;1.42;1.02;;;;;;;17.75;83.51;100167.44;5010209;28;20117;-65
2022/05/28 01:54:34;;;;;;;2.50;1.05;;;;;;;17.72;82.93;100161.53;5009748;28;20033;-65
2022/05/28 01:57:00;;;;;;;1.00;0.70;;;;;;;17.66;82.19;100165.81;5011511;28;20481;-65
2022/05/28 01:59:30;;;;;;;2.13;0.93;;;;;;;17.59;85.04;100164.88;5008597;28;20543;-65
2022/05/28 02:01:58;;;;;;;2.00;1.00;;;;;;;17.57;87.04;100158.78;5011741;28;20080;-65
2022/05/28 02:04:25;;;;;;;5.00;1.10;;;;;;;17.49;86.47;100169.72;5008987;28;20515;-65
2022/05/28 02:06:50;;;;;;;0.90;0.73;;;;;;;17.47;86.37;100154.63;5008252;28;20484;-65
2022/05/28 02:09:24;;;;;;;3.45;1.20;;;;;;;17.42;89.45;100157.03;5029383;28;20034;-65
2022/05/28 02:12:17;;;;;;;2.47;1.37;;;;;;;17.37;88.74;100144.00;5007519;28;20042;-65
2022/05/28 02:14:57;;;;;;;1.67;1.05;;;;;;;17.36;88.25;100126.06;5008313;28;20041;-65
2022/05/28 02:17:43;;;;;;;2.63;1.00;;;;;;;17.29;89.01;100121.56;5008826;28;20018;-65
2022/05/28 02:20:15;;;;;;;2.60;1.27;;;;;;;17.29;91.56;100129.69;5008374;28;20533;-65
2022/05/28 02:22:54;;;;;;;4.65;1.20;;;;;;;17.25;92.22;100128.38;5008062;28;20417;-65
2022/05/28 02:25:26;;;;;;;1.35;0.93;;;;;;;17.28;89.04;100120.69;5008551;28;20053;-64
2022/05/28 02:27:54;;;;;;;2.15;1.20;;;;;;;17.27;88.47;100142.56;5006719;28;20037;-65
2022/05/28 02:30:20;;;;;;;2.20;1.20;;;;;;;17.22;90.21;100139.56;5008582;28;20034;-65
2022/05/28 02:32:45;;;;;;;1.70;1.17;;;;;;;17.20;90.78;100138.91;5023080;28;20018;-65
2022/05/28 02:35:11;;;;;;;1.52;1.10;;;;;;;17.20;93.74;100137.03;5008096;28;20120;-66
2022/05/28 02:37:38;;;;;;;1.73;1.15;;;;;;;17.14;93.50;100118.78;5007823;28;20034;-66
2022/05/28 02:40:04;;;;;;;3.30;1.10;;;;;;;17.21;90.40;100135.16;5008123;28;20026;-65
2022/05/28 02:42:30;;;;;;;2.45;0.95;;;;;;;17.22;87.99;100143.09;5008236;28;20540;-65
2022/05/28 02:44:55;;;;;;;0.82;0.80;;;;;;;17.14;88.39;100145.91;5008276;28;20029;-66
2022/05/28 02:47:21;;;;;;;3.97;1.50;;;;;;;16.96;87.97;100104.69;5007962;28;20029;-65
2022/05/28 02:49:46;;;;;;;1.77;0.73;;;;;;;17.03;88.35;100121.09;5008061;28;20378;-65
2022/05/28 02:52:12;;;;;;;2.30;1.00;;;;;;;16.90;88.23;100110.00;5008427;28;20029;-65
2022/05/28 02:54:37;;;;;;;1.88;1.05;;;;;;;16.98;88.60;100127.03;5022776;28;20060;-64
2022/05/28 02:57:04;;;;;;;2.15;1.00;;;;;;;16.95;89.27;100124.69;5008096;28;20797;-65
2022/05/28 02:59:30;;;;;;;1.65;1.13;;;;;;;16.89;89.43;100124.56;5007953;28;20027;-65
2022/05/28 03:01:56;;;;;;;1.20;0.85;;;;;;;16.86;91.25;100127.66;5007610;28;20037;-66
2022/05/28 03:04:22;;;;;;;1.65;1.30;;;;;;;16.78;92.44;100106.00;5010936;28;20049;-65
2022/05/28 03:06:48;;;;;;;2.72;1.02;;;;;;;16.85;91.71;100123.22;5007567;28;20038;-65
2022/05/28 03:09:15;;;;;;;1.77;1.10;;;;;;;16.84;88.83;100127.81;5009777;28;20516;-66
2022/05/28 03:11:41;;;;;;;1.75;1.20;;;;;;;16.67;89.46;100118.09;5007698;28;20033;-65
2022/05/28 03:14:06;;;;;;;1.17;1.08;;;;;;;16.70;89.67;100127.75;5009065;28;20026;-65
2022/05/28 03:16:32;;;;;;;1.85;0.93;;;;;;;16.70;90.12;100133.16;5010291;28;20030;-65
2022/05/28 03:18:58;;;;;;;2.65;0.95;;;;;;;16.60;88.56;100114.41;5010269;28;20061;-65
2022/05/28 03:21:23;;;;;;;3.10;0.80;;;;;;;16.68;89.19;100129.78;5008220;28;20030;-65
2022/05/28 03:23:49;;;;;;;1.30;1.00;;;;;;;16.67;88.48;100142.47;5007532;28;20033;-65
2022/05/28 03:26:17;;;;;;;1.85;0.90;;;;;;;16.72;87.38;100147.34;5008116;28;20108;-65
2022/05/28 03:28:43;;;;;;;3.95;1.05;;;;;;;16.66;87.14;100142.63;5008092;28;20041;-65
2022/05/28 03:31:08;;;;;;;1.73;1.25;;;;;;;16.60;86.66;100136.06;5008348;28;20036;-64
2022/05/28 03:33:34;;;;;;;2.13;1.10;;;;;;;16.62;87.29;100136.75;5008009;28;20048;-65
2022/05/28 03:35:59;;;;;;;1.48;0.98;;;;;;;16.63;85.86;100134.88;5009163;28;20055;-65
2022/05/28 03:38:25;;;;;;;3.00;1.02;;;;;;;16.66;84.27;100137.22;5008318;28;20026;-64
2022/05/28 03:40:51;;;;;;;1.90;1.10;;;;;;;16.67;83.66;100133.50;5008814;28;20076;-64
2022/05/28 03:43:16;;;;;;;1.98;0.90;;;;;;;16.67;83.39;100134.34;5008279;28;20053;-63
2022/05/28 03:45:41;;;;;;;2.45;0.90;;;;;;;16.62;83.29;100125.06;5007946;28;20072;-65
2022/05/28 03:48:10;;;;;;;2.42;0.85;;;;;;;16.68;82.90;100127.06;5008777;28;20053;-64
2022/05/28 03:50:36;;;;;;;2.47;1.00;;;;;;;16.67;81.71;100111.84;5009384;28;20112;-64
2022/05/28 03:53:01;;;;;;;2.55;1.10;;;;;;;16.74;81.28;100132.63;5023225;28;20120;-64
2022/05/28 03:55:27;;;;;;;1.25;0.82;;;;;;;16.67;80.67;100128.09;5008296;28;20116;-65
2022/05/28 03:57:52;;;;;;;1.58;0.90;;;;;;;16.56;81.47;100123.06;5007903;28;20070;-65
2022/05/28 04:00:18;;;;;;;2.30;0.90;;;;;;;16.61;81.12;100129.63;5007941;28;20386;-64
2022/05/28 04:02:44;;;;;;;3.40;1.23;;;;;;;16.58;80.50;100132.72;5008166;28;20108;-64
2022/05/28 04:05:10;;;;;;;2.25;1.27;;;;;;;16.61;80.61;100136.94;5027725;28;20042;-65
2022/05/28 04:07:36;;;;;;;0.90;0.90;;;;;;;16.62;80.65;100135.91;5027678;28;20029;-65
2022/05/28 04:10:02;;;;;;;3.25;1.10;;;;;;;16.65;80.67;100132.84;5028763;28;20442;-64
2022/05/28 04:12:27;;;;;;;2.35;0.95;;;;;;;16.68;80.15;100135.19;5030055;28;20061;-64
2022/05/28 04:14:53;;;;;;;2.15;0.90;;;;;;;16.64;80.22;100131.16;5042652;28;20053;-65
2022/05/28 04:17:18;;;;;;;5.07;0.90;;;;;;;16.65;79.83;100130.13;5042892;28;20040;-65
2022/05/28 04:19:44;;;;;;;1.73;1.23;;;;;;;16.59;79.38;100123.56;5025300;28;20029;-63
2022/05/28 04:22:09;;;;;;;2.70;1.17;;;;;;;16.65;78.71;100133.69;5026790;28;20072;-64
2022/05/28 04:24:35;;;;;;;1.38;1.10;;;;;;;16.61;79.31;100136.94;5027650;28;20083;-64
2022/05/28 04:27:00;;;;;;;3.42;1.10;;;;;;;16.56;78.13;100133.91;5029998;28;20032;-64
2022/05/28 04:29:26;;;;;;;2.33;0.82;;;;;;;16.64;77.65;100150.13;5027204;28;20085;-65
2022/05/28 04:31:51;;;;;;;1.88;1.20;;;;;;;16.59;77.33;100150.66;5028738;28;20025;-64
2022/05/28 04:34:17;;;;;;;2.40;1.10;;;;;;;16.56;77.95;100158.25;5026712;28;20433;-63
2022/05/28 04:36:42;;;;;;;2.88;1.15;;;;;;;16.55;78.21;100156.59;5042996;28;20025;-64
2022/05/28 04:39:08;;;;;;;1.75;1.10;;;;;;;16.56;77.86;100152.84;5026589;28;20112;-65
2022/05/28 04:41:33;;;;;;;1.42;1.05;;;;;;;16.55;77.79;100157.44;5026447;28;20538;-63
2022/05/28 04:43:59;;;;;;;1.17;1.08;;;;;;;16.57;77.35;100152.66;5026171;28;20091;-65
2022/05/28 04:46:24;;;;;;;2.58;1.00;;;;;;;16.57;77.94;100158.09;5026345;28;20493;-64
2022/05/28 04:48:50;;;;;;;3.67;1.30;;;;;;;16.57;76.71;100151.84;5026627;28;20048;-64
2022/05/28 04:51:16;;;;;;;1.17;0.90;;;;;;;16.59;75.85;100156.06;5026643;28;20040;-65
2022/05/28 04:53:41;;;;;;;4.05;1.40;;;;;;;16.59;75.44;100156.06;5024467;28;20053;-64
2022/05/28 04:56:07;;;;;;;3.08;1.08;;;;;;;16.64;74.84;100161.78;5026597;28;20037;-65
2022/05/28 04:58:32;;;;;;;1.67;1.00;;;;;;;16.51;73.54;100130.91;5027122;28;20037;-64
2022/05/28 05:00:58;;;;;;;3.00;1.00;;;;;;;16.70;73.07;100160.25;5025325;28;20056;-64
2022/05/28 05:03:24;;;;;;;1.17;0.82;;;;;;;16.72;72.98;100152.75;5022131;28;20608;-65
2022/05/28 05:05:49;;;;;;;3.40;1.30;;;;;;;16.67;73.42;100145.16;5007708;28;20029;-64
2022/05/28 05:08:15;;;;;;;3.53;1.20;;;;;;;16.73;72.27;100146.34;5006358;28;20549;-63
2022/05/28 05:10:41;;;;;;;1.58;1.00;;;;;;;16.23;71.28;100056.56;5005159;28;20108;-65
2022/05/28 05:13:07;;;;;;;1.52;0.93;;;;;;;16.78;71.19;100155.63;5039387;28;20191;-64
2022/05/28 05:15:32;;;;;;;1.38;1.00;;;;;;;16.78;71.73;100157.47;5007380;28;20033;-64
2022/05/28 05:17:58;;;;;;;2.80;0.90;;;;;;;16.78;71.96;100163.75;5004874;28;20052;-64
2022/05/28 05:20:24;;;;;;;1.73;1.17;;;;;;;16.79;72.15;100168.13;5005592;28;20030;-64
2022/05/28 05:22:53;;;;;;;1.83;0.90;;;;;;;16.77;72.10;100162.03;5005212;28;20030;-64
2022/05/28 05:25:18;;;;;;;2.05;1.25;;;;;;;16.79;72.12;100172.69;5007056;28;20021;-64
2022/05/28 05:27:44;;;;;;;3.38;1.20;;;;;;;16.71;72.65;100168.19;5003969;28;20485;-64
2022/05/28 05:30:10;;;;;;;6.63;1.20;;;;;;;16.80;73.12;100175.22;5003055;28;20026;-64
2022/05/28 05:32:35;;;;;;;3.15;1.13;;;;;;;16.83;72.57;100185.72;5005325;28;20022;-64
2022/05/28 05:35:01;;;;;;;2.00;1.20;;;;;;;16.86;73.08;100196.19;5002972;28;20049;-64
2022/05/28 05:37:27;;;;;;;1.88;1.05;;;;;;;16.87;72.76;100207.88;5008157;28;20030;-65
2022/05/28 05:39:52;;;;;;;1.33;0.93;;;;;;;16.86;72.83;100219.75;5006477;28;20030;-65
2022/05/28 05:42:18;;;;;;;2.08;0.90;;;;;;;16.87;72.84;100225.00;5008504;28;20029;-65
2022/05/28 05:44:43;;;;;;;2.88;1.40;;;;;;;16.78;75.84;100203.53;5008696;28;20030;-65
2022/05/28 05:47:09;;;;;;;2.60;1.10;;;;;;;16.82;75.61;100218.41;5026856;28;20044;-66
2022/05/28 05:49:34;;;;;;;2.83;1.15;;;;;;;16.77;76.16;100213.50;5008465;28;20041;-65
2022/05/28 05:52:00;;;;;;;5.18;1.20;;;;;;;16.85;76.63;100221.59;5008296;28;20044;-66
2022/05/28 05:54:26;;;;;;;2.20;1.17;;;;;;;16.83;76.55;100214.69;5008048;28;20046;-65
2022/05/28 05:56:55;;;;;;;2.78;1.25;;;;;;;16.86;76.65;100231.41;5008994;28;20038;-66
2022/05/28 05:59:22;;;;;;;2.03;1.30;;;;;;;16.84;78.86;100221.78;5009118;28;20048;-66
2022/05/28 06:01:48;;;;;;;2.53;1.20;;;;;;;16.88;78.86;100217.69;5008894;28;20409;-65
2022/05/28 06:04:13;;;;;;;2.35;1.20;;;;;;;16.91;79.92;100215.50;5037599;28;20509;-66
2022/05/28 06:06:39;;;;;;;3.70;1.25;;;;;;;16.88;79.44;100206.84;5012363;28;20038;-66
2022/05/28 06:09:05;;;;;;;4.43;1.80;;;;;;;16.86;80.20;100215.16;5013831;28;20041;-66
2022/05/28 06:11:31;;;;;;;2.72;1.10;;;;;;;16.89;79.20;100212.09;5012505;28;20034;-66
2022/05/28 06:13:57;;;;;;;3.53;1.33;;;;;;;16.90;79.34;100216.47;5022310;28;20152;-66
2022/05/28 06:16:22;;;;;;;3.97;1.48;;;;;;;16.93;79.29;100216.13;5015348;28;20556;-66
2022/05/28 06:18:48;;;;;;;3.10;1.33;;;;;;;16.94;79.50;100208.84;5019312;28;20036;-66
2022/05/28 06:21:13;;;;;;;2.33;1.23;;;;;;;16.86;79.07;100200.78;5011439;28;20083;-66
2022/05/28 06:23:41;;;;;;;3.22;1.50;;;;;;;16.92;80.28;100224.44;5016005;28;20037;-66
2022/05/28 06:26:07;;;;;;;2.50;1.25;;;;;;;16.92;80.65;100227.16;5013154;28;20111;-66
2022/05/28 06:28:33;;;;;;;2.28;0.90;;;;;;;16.93;79.15;100234.28;5034262;28;20030;-65
2022/05/28 06:31:00;;;;;;;2.10;1.40;;;;;;;16.93;78.50;100232.38;5016457;28;20033;-66
2022/05/28 06:33:25;;;;;;;3.15;1.13;;;;;;;16.85;79.64;100224.31;5011293;28;20540;-67
2022/05/28 06:35:55;;;;;;;2.75;1.60;;;;;;;16.85;80.03;100220.75;5011901;28;20075;-67
2022/05/28 06:38:21;;;;;;;2.45;1.50;;;;;;;16.86;81.56;100212.44;5016125;28;20022;-64
2022/05/28 06:40:46;;;;;;;3.05;1.42;;;;;;;16.77;84.23;100199.97;5011651;28;20087;-66
2022/05/28 06:43:12;;;;;;;2.95;1.30;;;;;;;16.82;82.59;100215.69;5013812;28;20048;-66
2022/05/28 06:45:37;;;;;;;2.83;1.40;;;;;;;16.86;81.13;100220.56;5015021;28;20073;-66
2022/05/28 06:48:03;;;;;;;4.40;1.98;;;;;;;16.90;80.52;100237.34;5010425;28;20067;-66
2022/05/28 06:53:12;;;;;;;4.82;1.88;;;;;;;16.89;83.42;100235.63;5013707;28;20053;-66
2022/05/28 06:55:38;;;;;;;4.57;2.17;;;;;;;16.90;83.36;100227.31;5009933;28;20034;-66
2022/05/28 06:58:06;;;;;;;3.13;1.83;;;;;;;16.93;81.98;100239.69;5016847;28;20473;-66
2022/05/28 07:00:32;;;;;;;5.80;2.30;;;;;;;16.89;82.14;100239.19;5009473;28;20029;-66
2022/05/28 07:02:57;;;;;;;5.25;2.40;;;;;;;16.91;83.65;100248.00;5007114;28;20033;-66
2022/05/28 07:05:23;;;;;;;2.70;2.00;;;;;;;16.97;84.61;100262.69;5010184;28;20026;-66
2022/05/28 07:07:48;;;;;;;4.15;2.15;;;;;;;16.88;85.79;100247.50;5015889;28;20138;-66
2022/05/28 07:10:14;;;;;;;5.05;2.08;;;;;;;16.98;85.99;100253.53;5011922;28;20041;-66
2022/05/28 07:12:40;;;;;;;10.02;2.90;;;;;;;17.02;87.84;100257.56;5008555;28;20026;-66
2022/05/28 07:15:06;;;;;;;4.57;2.63;;;;;;;16.96;85.10;100253.72;5008371;28;20541;-66
2022/05/28 07:17:31;;;;;;;4.53;2.33;;;;;;;17.02;83.85;100263.00;5008115;28;20029;-67
2022/05/28 07:19:57;;;;;;;4.03;1.92;;;;;;;17.02;82.91;100271.13;5008420;28;20990;-66
2022/05/28 07:22:23;;;;;;;4.78;1.90;;;;;;;17.01;82.70;100266.72;5008089;28;20156;-66
2022/05/28 07:24:48;;;;;;;1.58;1.13;;;;;;;16.93;82.18;100250.53;5007819;28;20549;-66
2022/05/28 07:27:14;;;;;;;1.88;1.30;;;;;;;16.98;81.80;100258.94;5008457;28;20026;-65
2022/05/28 07:29:39;;;;;;;2.95;1.63;;;;;;;16.94;81.99;100257.63;5008272;28;20037;-66
2022/05/28 07:32:06;;;;;;;2.58;1.40;;;;;;;16.96;82.74;100274.56;5008204;28;20087;-66
2022/05/28 07:34:32;;;;;;;5.00;1.63;;;;;;;16.94;83.54;100271.19;5014014;28;20026;-65
2022/05/28 07:36:57;;;;;;;3.72;1.88;;;;;;;16.93;83.97;100277.63;5007935;28;20789;-66
2022/05/28 07:39:23;;;;;;;2.92;1.70;;;;;;;16.91;83.81;100279.66;5007805;28;20104;-65
2022/05/28 07:41:48;;;;;;;3.08;1.50;;;;;;;16.89;83.58;100277.13;5007724;28;20076;-65
2022/05/28 07:44:15;;;;;;;2.58;1.83;;;;;;;16.85;83.85;100275.78;5006386;28;20038;-65
2022/05/28 07:46:40;;;;;;;2.47;1.90;;;;;;;16.80;85.59;100270.03;5007250;28;20470;-66
2022/05/28 07:49:07;;;;;;;3.92;1.70;;;;;;;16.82;86.71;100267.16;5008092;28;20033;-65
2022/05/28 07:51:34;;;;;;;3.35;2.15;;;;;;;16.81;86.71;100255.50;5008671;28;20029;-66
2022/05/28 07:53:59;;;;;;;2.72;2.15;;;;;;;16.87;85.20;100272.91;5007768;28;20236;-66
2022/05/28 07:56:25;;;;;;;2.13;1.83;;;;;;;16.90;84.58;100280.69;5007842;28;20028;-66
2022/05/28 07:58:51;;;;;;;2.60;2.33;;;;;;;16.87;84.22;100278.31;5022487;28;20037;-66
2022/05/28 08:01:25;;;;;;;3.55;1.98;;;;;;;16.93;85.93;100291.16;5007456;28;20030;-65
2022/05/28 08:03:52;;;;;;;2.92;1.80;;;;;;;16.95;85.73;100286.41;5009096;28;21074;-65
2022/05/28 08:06:18;;;;;;;3.92;1.52;;;;;;;16.99;84.84;100291.28;5007603;28;20030;-65
2022/05/28 08:08:44;;;;;;;2.97;1.95;;;;;;;17.05;84.37;100292.44;5007265;28;20110;-66
2022/05/28 08:11:10;;;;;;;4.43;1.60;;;;;;;17.09;83.06;100286.50;5007886;28;20038;-65
2022/05/28 08:13:36;;;;;;;2.15;1.50;;;;;;;17.14;82.55;100285.97;5007046;28;20055;-65
2022/05/28 08:16:02;;;;;;;2.45;1.70;;;;;;;17.23;81.05;100279.50;5007131;28;20355;-65
2022/05/28 08:18:27;;;;;;;4.82;2.70;;;;;;;17.28;80.42;100277.94;5007712;28;20120;-65
2022/05/28 08:23:40;;;;;;;2.03;1.60;;;;;;;17.35;77.56;100262.63;5007044;28;20048;-66
2022/05/28 08:26:07;;;;;;;7.28;2.55;;;;;;;17.41;76.80;100264.63;5007172;28;20152;-66
2022/05/28 08:28:34;;;;;;;2.10;1.70;;;;;;;17.47;76.93;100253.09;5007446;28;20030;-65
2022/05/28 08:30:59;;;;;;;3.15;2.05;;;;;;;17.63;76.32;100262.97;5006860;28;20112;-65
2022/05/28 08:33:25;;;;;;;3.70;1.85;;;;;;;17.70;74.33;100261.22;5022281;28;20740;-65
2022/05/28 08:35:50;;;;;;;3.42;2.08;;;;;;;17.76;73.96;100274.91;5006879;28;20083;-65
2022/05/28 08:38:19;;;;;;;4.03;2.15;;;;;;;17.85;74.10;100271.13;5007025;28;20025;-65
2022/05/28 08:40:48;;;;;;;5.22;2.10;;;;;;;17.84;72.07;100280.28;5006790;28;20370;-65
2022/05/28 08:43:15;;;;;;;3.72;2.00;;;;;;;17.91;70.38;100283.13;5007119;28;20105;-65
2022/05/28 08:45:43;;;;;;;2.35;1.70;;;;;;;17.99;70.16;100272.16;5021419;28;20107;-65
2022/05/28 08:48:09;;;;;;;3.97;1.73;;;;;;;17.99;67.85;100270.31;5038634;28;20441;-65
2022/05/28 08:50:48;;;;;;;3.28;1.40;;;;;;;18.13;64.81;100283.06;5007098;28;20104;-64
2022/05/28 08:53:18;;;;;;;3.45;1.40;;;;;;;18.15;63.42;100284.78;5006963;28;20052;-65
2022/05/28 08:55:47;;;;;;;2.70;1.10;;;;;;;18.19;64.10;100284.22;5006959;28;20022;-65
2022/05/28 08:58:18;;;;;;;3.85;1.20;;;;;;;18.15;63.27;100266.59;5007030;28;20044;-64
2022/05/28 09:00:51;;;;;;;4.47;1.48;;;;;;;18.29;62.67;100287.53;5006600;28;20100;-64
2022/05/28 09:03:22;;;;;;;2.90;1.23;;;;;;;18.34;61.57;100278.81;5014299;28;20382;-65
2022/05/28 09:06:07;;;;;;;2.22;1.33;;;;;;;18.35;61.12;100281.34;5030516;28;20040;-65
2022/05/28 09:09:00;;;;;;;3.83;1.33;;;;;;;18.35;60.34;100273.22;5045798;28;20107;-65
2022/05/28 09:11:50;;;;;;;3.85;1.15;;;;;;;18.44;59.86;100277.53;5044760;28;20102;-65
2022/05/28 09:14:29;;;;;;;4.93;1.98;;;;;;;18.53;60.58;100278.28;5037720;28;20515;-65
2022/05/28 09:17:03;;;;;;;4.68;1.42;;;;;;;18.61;60.23;100268.19;5036355;28;20098;-65
2022/05/28 09:19:36;;;;;;;4.53;1.38;;;;;;;18.84;58.85;100273.53;5027342;28;20026;-66
2022/05/28 09:22:02;;;;;;;3.50;1.50;;;;;;;18.82;57.92;100253.81;5045646;28;20109;-65
2022/05/28 09:24:30;;;;;;;3.95;1.75;;;;;;;19.10;58.31;100273.88;5045887;28;20159;-65
2022/05/28 09:27:01;;;;;;;1.80;1.23;;;;;;;19.25;56.69;100278.22;5040636;28;20460;-66
2022/05/28 09:30:01;;;;;;;4.55;1.33;;;;;;;19.37;56.66;100276.75;5028119;28;20417;-65
2022/05/28 09:33:03;;;;;;;2.20;1.20;;;;;;;19.53;53.37;100276.50;5024692;28;20108;-65
2022/05/28 09:35:49;;;;;;;4.25;1.63;;;;;;;19.54;53.76;100275.44;5046204;28;20077;-65
2022/05/28 09:38:29;;;;;;;2.38;1.40;;;;;;;19.61;51.27;100280.97;5027951;28;20034;-65
2022/05/28 09:41:23;;;;;;;4.63;1.42;;;;;;;19.72;52.07;100275.88;5029010;28;20036;-66
2022/05/28 09:43:54;;;;;;;3.30;1.40;;;;;;;19.82;52.43;100270.94;5039235;28;20060;-66
2022/05/28 09:46:32;;;;;;;4.60;1.45;;;;;;;19.92;53.38;100271.44;5033667;28;20548;-66
2022/05/28 09:48:59;;;;;;;3.53;1.45;;;;;;;19.98;53.63;100264.38;5025719;28;20104;-68
2022/05/28 09:51:27;;;;;;;2.67;1.25;;;;;;;20.01;50.32;100258.53;5025668;28;20533;-68
2022/05/28 09:54:23;;;;;;;2.67;1.65;;;;;;;20.10;51.19;100273.69;5032799;28;20039;-68
2022/05/28 09:57:01;;;;;;;3.40;1.35;;;;;;;20.03;50.51;100254.56;5025609;28;20048;-66
2022/05/28 09:59:32;;;;;;;4.95;1.48;;;;;;;20.10;51.11;100273.69;5041470;28;20028;-65
2022/05/28 10:02:16;;;;;;;6.80;1.45;;;;;;;20.16;51.72;100265.59;5045774;28;20044;-65
2022/05/28 10:04:43;;;;;;;3.25;1.52;;;;;;;20.07;51.76;100264.06;5045329;28;20045;-65
2022/05/28 10:07:09;;;;;;;5.00;1.48;;;;;;;20.13;52.43;100267.88;5045495;28;20037;-66
2022/05/28 10:09:46;;;;;;;3.88;1.15;;;;;;;20.10;51.93;100263.66;5036151;28;20099;-65
2022/05/28 10:12:21;;;;;;;3.88;1.10;;;;;;;20.13;51.71;100274.16;5018853;28;20044;-65
2022/05/28 10:14:58;;;;;;;5.22;1.33;;;;;;;20.08;51.21;100273.91;5020752;28;20083;-66
2022/05/28 10:17:27;;;;;;;4.03;1.45;;;;;;;20.05;51.66;100271.56;5051327;28;20040;-65
2022/05/28 10:19:58;;;;;;;4.47;1.10;;;;;;;20.04;51.80;100279.94;5038069;28;20381;-66
2022/05/28 10:22:26;;;;;;;5.78;1.52;;;;;;;20.03;53.04;100281.78;5032920;28;20373;-65
2022/05/28 10:24:59;;;;;;;4.82;1.65;;;;;;;20.05;53.11;100287.91;5028830;28;20017;-65
2022/05/28 10:27:30;;;;;;;2.97;1.80;;;;;;;20.10;52.35;100300.94;5025079;28;20075;-66
2022/05/28 10:29:59;;;;;;;2.67;1.20;;;;;;;20.10;52.16;100298.22;5040559;28;20033;-66
2022/05/28 10:32:33;;;;;;;4.82;1.23;;;;;;;20.13;52.48;100304.13;5031703;28;20041;-65
2022/05/28 10:35:19;;;;;;;3.90;1.30;;;;;;;20.18;51.87;100304.38;5032091;28;20045;-66
2022/05/28 10:37:45;;;;;;;3.08;1.20;;;;;;;20.19;51.07;100299.78;5025035;28;20036;-66
2022/05/28 10:40:24;;;;;;;2.30;1.40;;;;;;;20.15;50.94;100298.47;5029277;28;20029;-66
2022/05/28 10:42:57;;;;;;;4.45;1.33;;;;;;;20.14;50.39;100303.09;5029360;28;20083;-66
2022/05/28 10:45:23;;;;;;;3.35;1.20;;;;;;;20.06;50.14;100297.75;5023936;28;20058;-66
2022/05/28 10:48:22;;;;;;;4.55;1.70;;;;;;;19.99;49.62;100294.13;5026233;28;20030;-66
2022/05/28 10:50:50;;;;;;;6.97;1.60;;;;;;;20.00;49.82;100298.53;5028188;28;20418;-66
2022/05/28 10:53:49;;;;;;;4.13;1.58;;;;;;;19.88;50.57;100285.63;5027723;28;20377;-65
2022/05/28 10:57:01;;;;;;;5.30;1.23;;;;;;;19.96;51.00;100302.69;5030030;28;20433;-66
2022/05/28 10:59:38;;;;;;;3.97;1.75;;;;;;;19.95;51.87;100301.00;5048960;28;20033;-66
2022/05/28 11:02:26;;;;;;;3.17;1.45;;;;;;;19.82;52.09;100280.97;5038871;28;20135;-64
2022/05/28 11:05:31;;;;;;;3.03;1.30;;;;;;;19.79;52.64;100303.13;5016343;28;20041;-65
2022/05/28 11:08:23;;;;;;;9.55;1.63;;;;;;;19.67;53.15;100302.81;5024441;28;20029;-66
2022/05/28 11:11:17;;;;;;;3.28;1.25;;;;;;;19.67;54.13;100308.25;5006938;28;20037;-66
2022/05/28 11:14:13;;;;;;;4.85;1.90;;;;;;;19.65;55.40;100302.19;5011939;28;20087;-66
2022/05/28 11:16:56;;;;;;;3.08;1.67;;;;;;;19.69;55.85;100291.72;5011780;28;20034;-66
2022/05/28 11:19:51;;;;;;;3.40;1.80;;;;;;;19.69;56.29;100292.56;5008371;28;20037;-66
2022/05/28 11:22:58;;;;;;;4.30;2.50;;;;;;;19.78;58.74;100277.81;5021596;28;20073;-66
2022/05/28 11:25:36;;;;;;;5.22;2.55;;;;;;;19.75;59.09;100264.59;5028406;28;20551;-67
2022/05/28 11:28:37;;;;;;;8.95;4.15;;;;;;;19.66;62.38;100259.44;5023779;28;20057;-67
2022/05/28 11:31:22;;;;;;;6.45;3.35;;;;;;;19.70;64.32;100283.38;5009830;28;20024;-67
2022/05/28 11:33:51;;;;;;;6.28;4.30;;;;;;;19.59;65.83;100272.16;5006758;28;20073;-67
2022/05/28 11:36:36;;;;;;;6.38;4.25;;;;;;;19.64;67.45;100283.31;5008116;28;20036;-67
2022/05/28 11:39:20;;;;;;;8.00;4.70;;;;;;;19.58;67.45;100276.75;5010817;28;20048;-67
2022/05/28 11:42:04;;;;;;;6.53;4.57;;;;;;;19.55;68.34;100273.59;5021706;28;20556;-67
2022/05/28 11:44:44;;;;;;;8.95;5.57;;;;;;;19.53;70.81;100264.75;5036251;28;20624;-67